sensor_id;sensor_type;location;lat;lon;timestamp;pressure;altitude;pressure_sealevel;temperature;humidity
43711;BME280;29309;42.682;23.372;2023-01-27T00:00:47;94359.19;;;0.16;98.66
43711;BME280;29309;42.682;23.372;2023-01-27T00:03:12;94358.47;;;0.16;98.80
43711;BME280;29309;42.682;23.372;2023-01-27T00:05:39;94358.88;;;0.12;98.67
43711;BME280;29309;42.682;23.372;2023-01-27T00:08:04;94360.34;;;0.13;98.56
43711;BME280;29309;42.682;23.372;2023-01-27T00:10:30;94360.75;;;0.10;98.65
43711;BME280;29309;42.682;23.372;2023-01-27T00:12:55;94345.13;;;0.10;98.57
43711;BME280;29309;42.682;23.372;2023-01-27T00:15:39;94347.25;;;0.12;98.69
43711;BME280;29309;42.682;23.372;2023-01-27T00:18:05;94348.16;;;0.14;98.67
43711;BME280;29309;42.682;23.372;2023-01-27T00:20:31;94342.97;;;0.18;98.66
43711;BME280;29309;42.682;23.372;2023-01-27T00:23:18;94345.25;;;0.22;98.90
43711;BME280;29309;42.682;23.372;2023-01-27T00:26:04;94322.00;;;0.21;98.86
43711;BME280;29309;42.682;23.372;2023-01-27T00:28:33;94323.03;;;0.25;99.10
43711;BME280;29309;42.682;23.372;2023-01-27T00:30:59;94328.63;;;0.27;98.82
43711;BME280;29309;42.682;23.372;2023-01-27T00:33:25;94327.19;;;0.26;98.72
43711;BME280;29309;42.682;23.372;2023-01-27T00:35:56;94329.50;;;0.30;98.61
43711;BME280;29309;42.682;23.372;2023-01-27T00:38:22;94330.22;;;0.30;98.64
43711;BME280;29309;42.682;23.372;2023-01-27T00:40:47;94341.13;;;0.30;98.32
43711;BME280;29309;42.682;23.372;2023-01-27T00:43:33;94327.34;;;0.28;98.50
43711;BME280;29309;42.682;23.372;2023-01-27T00:45:58;94328.75;;;0.29;98.23
43711;BME280;29309;42.682;23.372;2023-01-27T00:48:24;94327.66;;;0.32;98.13
43711;BME280;29309;42.682;23.372;2023-01-27T00:50:50;94335.84;;;0.32;98.12
43711;BME280;29309;42.682;23.372;2023-01-27T00:53:15;94342.00;;;0.33;97.98
43711;BME280;29309;42.682;23.372;2023-01-27T00:55:40;94348.16;;;0.33;97.79
43711;BME280;29309;42.682;23.372;2023-01-27T00:58:06;94336.09;;;0.36;97.87
43711;BME280;29309;42.682;23.372;2023-01-27T01:00:31;94340.16;;;0.35;97.76
43711;BME280;29309;42.682;23.372;2023-01-27T01:02:57;94336.28;;;0.38;97.55
43711;BME280;29309;42.682;23.372;2023-01-27T01:05:22;94338.84;;;0.36;97.60
43711;BME280;29309;42.682;23.372;2023-01-27T01:07:47;94337.00;;;0.39;97.90
43711;BME280;29309;42.682;23.372;2023-01-27T01:10:13;94335.69;;;0.40;97.57
43711;BME280;29309;42.682;23.372;2023-01-27T01:12:39;94327.91;;;0.36;97.55
43711;BME280;29309;42.682;23.372;2023-01-27T01:15:04;94328.94;;;0.31;97.59
43711;BME280;29309;42.682;23.372;2023-01-27T01:17:30;94334.50;;;0.24;97.84
43711;BME280;29309;42.682;23.372;2023-01-27T01:19:55;94330.50;;;0.25;97.64
43711;BME280;29309;42.682;23.372;2023-01-27T01:22:21;94332.66;;;0.26;97.63
43711;BME280;29309;42.682;23.372;2023-01-27T01:24:46;94334.66;;;0.26;97.78
43711;BME280;29309;42.682;23.372;2023-01-27T01:27:11;94334.50;;;0.24;97.70
43711;BME280;29309;42.682;23.372;2023-01-27T01:29:37;94327.78;;;0.25;97.60
43711;BME280;29309;42.682;23.372;2023-01-27T01:32:03;94324.31;;;0.24;97.93
43711;BME280;29309;42.682;23.372;2023-01-27T01:34:28;94324.03;;;0.20;97.61
43711;BME280;29309;42.682;23.372;2023-01-27T01:36:54;94339.13;;;0.21;97.89
43711;BME280;29309;42.682;23.372;2023-01-27T01:39:19;94339.81;;;0.22;97.70
43711;BME280;29309;42.682;23.372;2023-01-27T01:41:45;94343.13;;;0.20;97.85
43711;BME280;29309;42.682;23.372;2023-01-27T01:44:27;94354.34;;;0.24;98.08
43711;BME280;29309;42.682;23.372;2023-01-27T01:46:52;94350.72;;;0.22;97.71
43711;BME280;29309;42.682;23.372;2023-01-27T01:49:22;94347.56;;;0.16;97.62
43711;BME280;29309;42.682;23.372;2023-01-27T01:51:54;94337.91;;;0.15;97.49
43711;BME280;29309;42.682;23.372;2023-01-27T01:54:26;94329.16;;;0.07;97.90
43711;BME280;29309;42.682;23.372;2023-01-27T01:56:57;94316.81;;;0.06;98.27
43711;BME280;29309;42.682;23.372;2023-01-27T01:59:29;94313.94;;;0.04;98.46
43711;BME280;29309;42.682;23.372;2023-01-27T02:01:59;94315.94;;;0.03;98.44
43711;BME280;29309;42.682;23.372;2023-01-27T02:04:30;94308.06;;;0.07;98.68
43711;BME280;29309;42.682;23.372;2023-01-27T02:07:04;94297.41;;;0.11;99.08
43711;BME280;29309;42.682;23.372;2023-01-27T02:09:31;94297.72;;;0.15;99.01
43711;BME280;29309;42.682;23.372;2023-01-27T02:11:57;94295.44;;;0.21;99.04
43711;BME280;29309;42.682;23.372;2023-01-27T02:14:23;94287.56;;;0.25;99.51
43711;BME280;29309;42.682;23.372;2023-01-27T02:16:49;94273.47;;;0.29;99.25
43711;BME280;29309;42.682;23.372;2023-01-27T02:19:26;94274.91;;;0.30;99.11
43711;BME280;29309;42.682;23.372;2023-01-27T02:21:54;94275.19;;;0.34;99.41
43711;BME280;29309;42.682;23.372;2023-01-27T02:24:23;94273.31;;;0.36;99.10
43711;BME280;29309;42.682;23.372;2023-01-27T02:26:52;94272.19;;;0.39;99.32
43711;BME280;29309;42.682;23.372;2023-01-27T02:29:17;94269.72;;;0.43;99.10
43711;BME280;29309;42.682;23.372;2023-01-27T02:31:43;94272.47;;;0.43;98.87
43711;BME280;29309;42.682;23.372;2023-01-27T02:34:19;94271.91;;;0.45;98.78
43711;BME280;29309;42.682;23.372;2023-01-27T02:36:50;94273.91;;;0.44;98.83
43711;BME280;29309;42.682;23.372;2023-01-27T02:39:19;94271.19;;;0.44;98.89
43711;BME280;29309;42.682;23.372;2023-01-27T02:41:51;94269.03;;;0.43;98.27
43711;BME280;29309;42.682;23.372;2023-01-27T02:44:17;94271.03;;;0.42;98.28
43711;BME280;29309;42.682;23.372;2023-01-27T02:46:43;94267.44;;;0.40;98.20
43711;BME280;29309;42.682;23.372;2023-01-27T02:49:08;94278.66;;;0.44;98.52
43711;BME280;29309;42.682;23.372;2023-01-27T02:51:34;94279.06;;;0.40;98.24
43711;BME280;29309;42.682;23.372;2023-01-27T02:53:59;94285.56;;;0.35;98.13
43711;BME280;29309;42.682;23.372;2023-01-27T02:56:25;94291.16;;;0.37;98.10
43711;BME280;29309;42.682;23.372;2023-01-27T02:58:50;94279.38;;;0.35;98.44
43711;BME280;29309;42.682;23.372;2023-01-27T03:01:16;94283.38;;;0.34;98.17
43711;BME280;29309;42.682;23.372;2023-01-27T03:03:41;94271.75;;;0.33;98.17
43711;BME280;29309;42.682;23.372;2023-01-27T03:06:12;94280.81;;;0.36;98.42
43711;BME280;29309;42.682;23.372;2023-01-27T03:08:38;94262.56;;;0.38;98.22
43711;BME280;29309;42.682;23.372;2023-01-27T03:11:03;94271.91;;;0.35;98.39
43711;BME280;29309;42.682;23.372;2023-01-27T03:13:29;94263.13;;;0.37;98.46
43711;BME280;29309;42.682;23.372;2023-01-27T03:15:57;94261.84;;;0.38;98.66
43711;BME280;29309;42.682;23.372;2023-01-27T03:18:41;94256.38;;;0.38;98.88
43711;BME280;29309;42.682;23.372;2023-01-27T03:21:12;94253.09;;;0.39;98.75
43711;BME280;29309;42.682;23.372;2023-01-27T03:23:38;94251.34;;;0.44;98.85
43711;BME280;29309;42.682;23.372;2023-01-27T03:26:08;94245.16;;;0.43;98.77
43711;BME280;29309;42.682;23.372;2023-01-27T03:28:34;94240.84;;;0.40;99.13
43711;BME280;29309;42.682;23.372;2023-01-27T03:31:05;94234.53;;;0.38;99.39
43711;BME280;29309;42.682;23.372;2023-01-27T03:33:31;94234.53;;;0.38;99.05
43711;BME280;29309;42.682;23.372;2023-01-27T03:35:57;94225.63;;;0.37;99.26
43711;BME280;29309;42.682;23.372;2023-01-27T03:38:43;94219.19;;;0.42;99.43
43711;BME280;29309;42.682;23.372;2023-01-27T03:41:27;94204.94;;;0.44;99.53
43711;BME280;29309;42.682;23.372;2023-01-27T03:44:11;94205.09;;;0.46;99.65
43711;BME280;29309;42.682;23.372;2023-01-27T03:46:55;94204.50;;;0.47;99.57
43711;BME280;29309;42.682;23.372;2023-01-27T03:49:21;94196.91;;;0.46;99.55
43711;BME280;29309;42.682;23.372;2023-01-27T03:51:46;94201.78;;;0.47;99.40
43711;BME280;29309;42.682;23.372;2023-01-27T03:54:11;94206.53;;;0.47;99.35
43711;BME280;29309;42.682;23.372;2023-01-27T03:56:37;94212.13;;;0.49;99.13
43711;BME280;29309;42.682;23.372;2023-01-27T03:59:02;94207.38;;;0.49;99.29
43711;BME280;29309;42.682;23.372;2023-01-27T04:01:28;94206.81;;;0.51;98.95
43711;BME280;29309;42.682;23.372;2023-01-27T04:03:54;94216.31;;;0.50;99.19
43711;BME280;29309;42.682;23.372;2023-01-27T04:06:39;94238.72;;;0.48;99.11
43711;BME280;29309;42.682;23.372;2023-01-27T04:09:24;94250.91;;;0.47;98.92
43711;BME280;29309;42.682;23.372;2023-01-27T04:11:50;94254.25;;;0.46;99.41
43711;BME280;29309;42.682;23.372;2023-01-27T04:16:55;94283.69;;;0.47;99.43
43711;BME280;29309;42.682;23.372;2023-01-27T04:19:21;94285.84;;;0.49;99.16
43711;BME280;29309;42.682;23.372;2023-01-27T04:21:47;94278.22;;;0.47;99.00
43711;BME280;29309;42.682;23.372;2023-01-27T04:24:14;94276.22;;;0.48;98.78
43711;BME280;29309;42.682;23.372;2023-01-27T04:26:54;94271.34;;;0.46;98.77
43711;BME280;29309;42.682;23.372;2023-01-27T04:29:22;94288.44;;;0.47;99.04
43711;BME280;29309;42.682;23.372;2023-01-27T04:31:49;94290.59;;;0.48;98.94
43711;BME280;29309;42.682;23.372;2023-01-27T04:34:14;94306.25;;;0.48;98.71
43711;BME280;29309;42.682;23.372;2023-01-27T04:36:40;94304.22;;;0.48;98.77
43711;BME280;29309;42.682;23.372;2023-01-27T04:39:07;94298.63;;;0.46;98.54
43711;BME280;29309;42.682;23.372;2023-01-27T04:41:33;94296.03;;;0.48;98.70
43711;BME280;29309;42.682;23.372;2023-01-27T04:43:59;94300.34;;;0.52;98.58
43711;BME280;29309;42.682;23.372;2023-01-27T04:46:24;94308.41;;;0.49;98.49
43711;BME280;29309;42.682;23.372;2023-01-27T04:48:50;94301.38;;;0.46;98.37
43711;BME280;29309;42.682;23.372;2023-01-27T04:51:15;94293.19;;;0.46;98.51
43711;BME280;29309;42.682;23.372;2023-01-27T04:53:41;94299.94;;;0.45;98.41
43711;BME280;29309;42.682;23.372;2023-01-27T04:56:19;94299.50;;;0.49;98.21
43711;BME280;29309;42.682;23.372;2023-01-27T04:58:45;94303.50;;;0.48;98.21
43711;BME280;29309;42.682;23.372;2023-01-27T05:01:11;94304.09;;;0.46;98.12
43711;BME280;29309;42.682;23.372;2023-01-27T05:03:36;94307.69;;;0.49;98.00
43711;BME280;29309;42.682;23.372;2023-01-27T05:06:02;94311.69;;;0.48;98.49
43711;BME280;29309;42.682;23.372;2023-01-27T05:08:29;94300.94;;;0.50;98.06
43711;BME280;29309;42.682;23.372;2023-01-27T05:10:54;94297.50;;;0.49;98.21
43711;BME280;29309;42.682;23.372;2023-01-27T05:13:20;94302.09;;;0.47;98.10
43711;BME280;29309;42.682;23.372;2023-01-27T05:15:45;94296.63;;;0.47;98.10
43711;BME280;29309;42.682;23.372;2023-01-27T05:18:12;94290.88;;;0.43;98.50
43711;BME280;29309;42.682;23.372;2023-01-27T05:20:37;94293.03;;;0.44;98.45
43711;BME280;29309;42.682;23.372;2023-01-27T05:23:03;94293.03;;;0.44;98.55
43711;BME280;29309;42.682;23.372;2023-01-27T05:25:47;94287.56;;;0.44;98.30
43711;BME280;29309;42.682;23.372;2023-01-27T05:28:12;94277.53;;;0.47;98.59
43711;BME280;29309;42.682;23.372;2023-01-27T05:30:37;94277.66;;;0.49;98.47
43711;BME280;29309;42.682;23.372;2023-01-27T05:33:03;94272.06;;;0.47;98.65
43711;BME280;29309;42.682;23.372;2023-01-27T05:35:31;94287.28;;;0.50;98.62
43711;BME280;29309;42.682;23.372;2023-01-27T05:37:57;94281.09;;;0.49;98.43
43711;BME280;29309;42.682;23.372;2023-01-27T05:40:23;94282.41;;;0.48;98.87
43711;BME280;29309;42.682;23.372;2023-01-27T05:42:50;94268.59;;;0.46;98.84
43711;BME280;29309;42.682;23.372;2023-01-27T05:45:16;94262.00;;;0.49;98.68
43711;BME280;29309;42.682;23.372;2023-01-27T05:47:41;94255.25;;;0.51;98.81
43711;BME280;29309;42.682;23.372;2023-01-27T05:50:07;94260.72;;;0.51;98.74
43711;BME280;29309;42.682;23.372;2023-01-27T05:52:33;94273.47;;;0.48;98.64
43711;BME280;29309;42.682;23.372;2023-01-27T05:54:58;94279.66;;;0.48;98.68
43711;BME280;29309;42.682;23.372;2023-01-27T05:57:23;94280.94;;;0.47;98.63
43711;BME280;29309;42.682;23.372;2023-01-27T05:59:49;94292.59;;;0.48;98.92
43711;BME280;29309;42.682;23.372;2023-01-27T06:02:14;94294.16;;;0.51;99.02
43711;BME280;29309;42.682;23.372;2023-01-27T06:04:40;94291.44;;;0.51;98.95
43711;BME280;29309;42.682;23.372;2023-01-27T06:07:05;94284.69;;;0.52;99.57
43711;BME280;29309;42.682;23.372;2023-01-27T06:09:31;94285.41;;;0.53;99.20
43711;BME280;29309;42.682;23.372;2023-01-27T06:11:56;94284.84;;;0.54;99.18
43711;BME280;29309;42.682;23.372;2023-01-27T06:14:21;94270.78;;;0.58;99.05
43711;BME280;29309;42.682;23.372;2023-01-27T06:16:47;94278.97;;;0.58;98.75
43711;BME280;29309;42.682;23.372;2023-01-27T06:19:13;94287.84;;;0.58;98.79
43711;BME280;29309;42.682;23.372;2023-01-27T06:21:39;94292.19;;;0.61;98.68
43711;BME280;29309;42.682;23.372;2023-01-27T06:24:04;94297.66;;;0.61;97.74
43711;BME280;29309;42.682;23.372;2023-01-27T06:26:30;94291.47;;;0.61;97.85
43711;BME280;29309;42.682;23.372;2023-01-27T06:28:55;94288.13;;;0.62;97.86
43711;BME280;29309;42.682;23.372;2023-01-27T06:31:21;94281.25;;;0.61;97.72
43711;BME280;29309;42.682;23.372;2023-01-27T06:33:48;94286.28;;;0.65;98.01
43711;BME280;29309;42.682;23.372;2023-01-27T06:36:16;94285.44;;;0.72;97.82
43711;BME280;29309;42.682;23.372;2023-01-27T06:38:42;94287.84;;;0.77;97.68
43711;BME280;29309;42.682;23.372;2023-01-27T06:41:08;94285.72;;;0.76;97.54
43711;BME280;29309;42.682;23.372;2023-01-27T06:43:34;94296.63;;;0.76;97.78
43711;BME280;29309;42.682;23.372;2023-01-27T06:46:00;94296.06;;;0.77;97.86
43711;BME280;29309;42.682;23.372;2023-01-27T06:48:26;94298.22;;;0.79;97.78
43711;BME280;29309;42.682;23.372;2023-01-27T06:50:53;94302.97;;;0.78;97.37
43711;BME280;29309;42.682;23.372;2023-01-27T06:53:18;94314.03;;;0.80;96.99
43711;BME280;29309;42.682;23.372;2023-01-27T06:55:44;94301.25;;;0.83;96.73
43711;BME280;29309;42.682;23.372;2023-01-27T06:58:11;94302.81;;;0.86;96.75
43711;BME280;29309;42.682;23.372;2023-01-27T07:00:37;94319.22;;;0.86;96.72
43711;BME280;29309;42.682;23.372;2023-01-27T07:03:04;94309.56;;;0.85;96.41
43711;BME280;29309;42.682;23.372;2023-01-27T07:05:30;94312.44;;;0.87;95.95
43711;BME280;29309;42.682;23.372;2023-01-27T07:07:56;94314.31;;;0.84;95.20
43711;BME280;29309;42.682;23.372;2023-01-27T07:10:21;94319.47;;;0.80;95.01
43711;BME280;29309;42.682;23.372;2023-01-27T07:12:47;94321.66;;;0.82;94.85
43711;BME280;29309;42.682;23.372;2023-01-27T07:15:12;94320.63;;;0.77;94.50
43711;BME280;29309;42.682;23.372;2023-01-27T07:17:38;94314.44;;;0.77;94.74
43711;BME280;29309;42.682;23.372;2023-01-27T07:20:05;94312.28;;;0.85;94.71
43711;BME280;29309;42.682;23.372;2023-01-27T07:22:30;94311.88;;;0.88;94.40
43711;BME280;29309;42.682;23.372;2023-01-27T07:24:56;94311.88;;;0.88;94.30
43711;BME280;29309;42.682;23.372;2023-01-27T07:27:24;94310.72;;;0.91;94.05
43711;BME280;29309;42.682;23.372;2023-01-27T07:29:50;94312.72;;;0.91;94.13
43711;BME280;29309;42.682;23.372;2023-01-27T07:32:16;94305.41;;;0.93;94.37
43711;BME280;29309;42.682;23.372;2023-01-27T07:34:42;94318.47;;;0.95;93.74
43711;BME280;29309;42.682;23.372;2023-01-27T07:37:07;94315.19;;;0.96;93.87
43711;BME280;29309;42.682;23.372;2023-01-27T07:39:35;94312.56;;;0.98;93.35
43711;BME280;29309;42.682;23.372;2023-01-27T07:42:01;94309.13;;;0.98;93.68
43711;BME280;29309;42.682;23.372;2023-01-27T07:44:27;94318.19;;;1.01;93.79
43711;BME280;29309;42.682;23.372;2023-01-27T07:46:53;94319.91;;;1.06;93.77
43711;BME280;29309;42.682;23.372;2023-01-27T07:49:18;94320.91;;;1.10;93.78
43711;BME280;29309;42.682;23.372;2023-01-27T07:51:44;94312.84;;;1.12;93.28
43711;BME280;29309;42.682;23.372;2023-01-27T07:54:10;94320.63;;;1.16;92.78
43711;BME280;29309;42.682;23.372;2023-01-27T07:56:36;94321.19;;;1.14;92.68
43711;BME280;29309;42.682;23.372;2023-01-27T07:59:02;94322.47;;;1.13;92.70
43711;BME280;29309;42.682;23.372;2023-01-27T08:01:28;94315.56;;;1.12;92.36
43711;BME280;29309;42.682;23.372;2023-01-27T08:03:54;94307.13;;;1.08;92.40
43711;BME280;29309;42.682;23.372;2023-01-27T08:06:19;94315.31;;;1.08;92.24
43711;BME280;29309;42.682;23.372;2023-01-27T08:08:45;94321.19;;;1.14;92.49
43711;BME280;29309;42.682;23.372;2023-01-27T08:11:12;94319.31;;;1.17;92.33
43711;BME280;29309;42.682;23.372;2023-01-27T08:13:38;94315.28;;;1.18;92.15
43711;BME280;29309;42.682;23.372;2023-01-27T08:16:05;94316.88;;;1.21;92.03
43711;BME280;29309;42.682;23.372;2023-01-27T08:18:31;94315.41;;;1.20;91.73
43711;BME280;29309;42.682;23.372;2023-01-27T08:21:02;94304.78;;;1.24;91.83
43711;BME280;29309;42.682;23.372;2023-01-27T08:23:27;94305.66;;;1.26;91.18
43711;BME280;29309;42.682;23.372;2023-01-27T08:25:55;94322.19;;;1.28;91.09
43711;BME280;29309;42.682;23.372;2023-01-27T08:28:22;94322.91;;;1.29;90.46
43711;BME280;29309;42.682;23.372;2023-01-27T08:30:49;94324.78;;;1.26;89.60
43711;BME280;29309;42.682;23.372;2023-01-27T08:33:17;94320.88;;;1.20;89.20
43711;BME280;29309;42.682;23.372;2023-01-27T08:35:43;94314.72;;;1.19;89.32
43711;BME280;29309;42.682;23.372;2023-01-27T08:38:15;94315.28;;;1.18;89.00
43711;BME280;29309;42.682;23.372;2023-01-27T08:40:44;94320.75;;;1.18;88.52
43711;BME280;29309;42.682;23.372;2023-01-27T08:43:10;94329.53;;;1.16;88.82
43711;BME280;29309;42.682;23.372;2023-01-27T08:45:36;94325.81;;;1.12;88.69
43711;BME280;29309;42.682;23.372;2023-01-27T08:48:02;94337.19;;;1.08;88.84
43711;BME280;29309;42.682;23.372;2023-01-27T08:50:28;94331.72;;;1.08;88.17
43711;BME280;29309;42.682;23.372;2023-01-27T08:52:55;94322.19;;;1.09;88.56
43711;BME280;29309;42.682;23.372;2023-01-27T08:55:27;94323.34;;;1.06;88.01
43711;BME280;29309;42.682;23.372;2023-01-27T08:57:53;94329.09;;;1.10;88.29
43711;BME280;29309;42.682;23.372;2023-01-27T09:00:19;94326.25;;;1.08;88.26
43711;BME280;29309;42.682;23.372;2023-01-27T09:02:44;94314.72;;;1.10;88.66
43711;BME280;29309;42.682;23.372;2023-01-27T09:05:10;94319.19;;;1.05;87.77
43711;BME280;29309;42.682;23.372;2023-01-27T09:07:35;94313.44;;;1.01;88.04
43711;BME280;29309;42.682;23.372;2023-01-27T09:10:01;94316.63;;;0.97;88.06
43711;BME280;29309;42.682;23.372;2023-01-27T09:12:26;94316.63;;;0.97;88.46
43711;BME280;29309;42.682;23.372;2023-01-27T09:14:52;94316.91;;;0.92;88.74
43711;BME280;29309;42.682;23.372;2023-01-27T09:17:18;94322.78;;;0.98;88.54
43711;BME280;29309;42.682;23.372;2023-01-27T09:19:44;94322.78;;;0.98;89.00
43711;BME280;29309;42.682;23.372;2023-01-27T09:22:10;94326.53;;;1.03;88.47
43711;BME280;29309;42.682;23.372;2023-01-27T09:24:35;94313.44;;;1.01;88.87
43711;BME280;29309;42.682;23.372;2023-01-27T09:27:01;94312.72;;;1.01;88.96
43711;BME280;29309;42.682;23.372;2023-01-27T09:29:26;94307.41;;;1.03;89.52
43711;BME280;29309;42.682;23.372;2023-01-27T09:31:53;94310.97;;;1.05;89.59
43711;BME280;29309;42.682;23.372;2023-01-27T09:34:20;94301.06;;;1.10;89.60
43711;BME280;29309;42.682;23.372;2023-01-27T09:36:47;94296.19;;;1.08;89.23
43711;BME280;29309;42.682;23.372;2023-01-27T09:39:16;94290.44;;;1.04;89.42
43711;BME280;29309;42.682;23.372;2023-01-27T09:58:17;94268.84;;;1.08;89.90
43711;BME280;29309;42.682;23.372;2023-01-27T10:11:33;94258.06;;;1.10;89.94
43711;BME280;29309;42.682;23.372;2023-01-27T10:19:35;94262.22;;;1.11;90.15
43711;BME280;29309;42.682;23.372;2023-01-27T10:22:16;94268.25;;;1.10;89.82
43711;BME280;29309;42.682;23.372;2023-01-27T10:24:57;94264.09;;;1.09;90.47
43711;BME280;29309;42.682;23.372;2023-01-27T10:27:31;94263.38;;;1.08;90.19
43711;BME280;29309;42.682;23.372;2023-01-27T10:30:10;94259.50;;;1.11;89.91
43711;BME280;29309;42.682;23.372;2023-01-27T10:35:17;94255.88;;;1.09;89.51
43711;BME280;29309;42.682;23.372;2023-01-27T10:45:47;94255.59;;;1.14;88.66
43711;BME280;29309;42.682;23.372;2023-01-27T10:51:00;94256.47;;;1.07;88.88
43711;BME280;29309;42.682;23.372;2023-01-27T10:53:49;94247.84;;;1.11;88.92
43711;BME280;29309;42.682;23.372;2023-01-27T11:01:43;94245.09;;;1.11;89.41
43711;BME280;29309;42.682;23.372;2023-01-27T11:04:24;94246.69;;;1.14;89.17
43711;BME280;29309;42.682;23.372;2023-01-27T11:06:54;94242.06;;;1.16;89.32
43711;BME280;29309;42.682;23.372;2023-01-27T11:09:29;94241.94;;;1.14;89.17
43711;BME280;29309;42.682;23.372;2023-01-27T11:12:09;94245.22;;;1.13;89.11
43711;BME280;29309;42.682;23.372;2023-01-27T11:14:48;94243.38;;;1.15;88.78
43711;BME280;29309;42.682;23.372;2023-01-27T11:28:24;94224.38;;;1.17;88.87
43711;BME280;29309;42.682;23.372;2023-01-27T11:31:13;94215.00;;;1.20;88.72
43711;BME280;29309;42.682;23.372;2023-01-27T11:36:13;94217.63;;;1.18;88.38
43711;BME280;29309;42.682;23.372;2023-01-27T11:38:39;94211.56;;;1.20;88.49
43711;BME280;29309;42.682;23.372;2023-01-27T11:41:04;94215.59;;;1.19;88.34
43711;BME280;29309;42.682;23.372;2023-01-27T11:43:30;94218.03;;;1.24;88.06
43711;BME280;29309;42.682;23.372;2023-01-27T11:46:05;94222.22;;;1.16;87.85
43711;BME280;29309;42.682;23.372;2023-01-27T11:48:37;94220.06;;;1.14;87.34
43711;BME280;29309;42.682;23.372;2023-01-27T11:51:11;94215.31;;;1.15;87.11
43711;BME280;29309;42.682;23.372;2023-01-27T11:53:39;94209.69;;;1.13;87.49
43711;BME280;29309;42.682;23.372;2023-01-27T11:56:25;94217.47;;;1.16;88.15
43711;BME280;29309;42.682;23.372;2023-01-27T11:59:00;94215.44;;;1.17;88.37
43711;BME280;29309;42.682;23.372;2023-01-27T12:01:32;94208.25;;;1.21;87.86
43711;BME280;29309;42.682;23.372;2023-01-27T12:04:09;94216.91;;;1.18;88.37
43711;BME280;29309;42.682;23.372;2023-01-27T12:09:31;94208.97;;;1.12;87.53
43711;BME280;29309;42.682;23.372;2023-01-27T12:12:22;94211.03;;;1.12;88.24
43711;BME280;29309;42.682;23.372;2023-01-27T12:14:53;94209.25;;;1.16;87.88
43711;BME280;29309;42.682;23.372;2023-01-27T12:17:36;94216.91;;;1.18;88.30
43711;BME280;29309;42.682;23.372;2023-01-27T12:22:53;94216.31;;;1.19;88.14
43711;BME280;29309;42.682;23.372;2023-01-27T12:25:27;94211.97;;;1.26;87.62
43711;BME280;29309;42.682;23.372;2023-01-27T12:27:56;94205.50;;;1.21;87.33
43711;BME280;29309;42.682;23.372;2023-01-27T12:30:25;94211.56;;;1.20;87.51
43711;BME280;29309;42.682;23.372;2023-01-27T12:32:53;94216.56;;;1.23;87.65
43711;BME280;29309;42.682;23.372;2023-01-27T12:35:22;94218.88;;;1.27;87.00
43711;BME280;29309;42.682;23.372;2023-01-27T12:37:56;94215.28;;;1.24;87.01
43711;BME280;29309;42.682;23.372;2023-01-27T12:40:23;94210.41;;;1.23;86.37
43711;BME280;29309;42.682;23.372;2023-01-27T12:45:33;94206.78;;;1.30;87.30
43711;BME280;29309;42.682;23.372;2023-01-27T12:48:14;94212.38;;;1.32;87.50
43711;BME280;29309;42.682;23.372;2023-01-27T12:51:14;94207.63;;;1.32;87.89
43711;BME280;29309;42.682;23.372;2023-01-27T12:53:40;94207.75;;;1.34;87.77
43711;BME280;29309;42.682;23.372;2023-01-27T12:56:21;94208.19;;;1.40;87.83
43711;BME280;29309;42.682;23.372;2023-01-27T13:01:29;94207.03;;;1.43;88.10
43711;BME280;29309;42.682;23.372;2023-01-27T13:06:33;94203.25;;;1.48;88.06
43711;BME280;29309;42.682;23.372;2023-01-27T13:09:02;94193.75;;;1.49;88.32
43711;BME280;29309;42.682;23.372;2023-01-27T13:11:38;94197.78;;;1.48;88.54
43711;BME280;29309;42.682;23.372;2023-01-27T13:14:15;94209.59;;;1.51;88.35
43711;BME280;29309;42.682;23.372;2023-01-27T13:16:55;94219.06;;;1.50;88.52
43711;BME280;29309;42.682;23.372;2023-01-27T13:19:31;94199.22;;;1.49;88.59
43711;BME280;29309;42.682;23.372;2023-01-27T13:21:59;94208.97;;;1.53;88.92
43711;BME280;29309;42.682;23.372;2023-01-27T13:24:36;94205.94;;;1.58;89.22
43711;BME280;29309;42.682;23.372;2023-01-27T13:27:11;94208.34;;;1.64;88.68
43711;BME280;29309;42.682;23.372;2023-01-27T13:29:39;94218.56;;;1.63;88.21
43711;BME280;29309;42.682;23.372;2023-01-27T13:32:26;94215.28;;;1.65;88.42
43711;BME280;29309;42.682;23.372;2023-01-27T13:35:00;94216.84;;;1.68;88.42
43711;BME280;29309;42.682;23.372;2023-01-27T13:37:39;94213.09;;;1.63;88.32
43711;BME280;29309;42.682;23.372;2023-01-27T13:40:13;94217.34;;;1.55;88.41
43711;BME280;29309;42.682;23.372;2023-01-27T13:42:51;94217.06;;;1.51;88.20
43711;BME280;29309;42.682;23.372;2023-01-27T13:45:39;94215.91;;;1.54;88.53
43711;BME280;29309;42.682;23.372;2023-01-27T13:50:38;94217.50;;;1.47;88.26
43711;BME280;29309;42.682;23.372;2023-01-27T13:53:11;94219.66;;;1.48;88.43
43711;BME280;29309;42.682;23.372;2023-01-27T14:07:28;94226.56;;;1.49;88.85
43711;BME280;29309;42.682;23.372;2023-01-27T14:19:01;94245.31;;;1.43;88.17
43711;BME280;29309;42.682;23.372;2023-01-27T14:21:54;94237.09;;;1.43;88.00
43711;BME280;29309;42.682;23.372;2023-01-27T14:34:48;94251.94;;;1.31;87.34
43711;BME280;29309;42.682;23.372;2023-01-27T14:40:38;94253.44;;;1.22;88.07
43711;BME280;29309;42.682;23.372;2023-01-27T14:45:41;94254.72;;;1.21;87.37
43711;BME280;29309;42.682;23.372;2023-01-27T14:48:38;94256.00;;;1.20;87.52
43711;BME280;29309;42.682;23.372;2023-01-27T14:51:27;94256.31;;;1.15;87.69
43711;BME280;29309;42.682;23.372;2023-01-27T14:54:27;94268.09;;;1.17;87.66
43711;BME280;29309;42.682;23.372;2023-01-27T14:57:14;94270.00;;;1.15;87.76
43711;BME280;29309;42.682;23.372;2023-01-27T15:02:43;94269.72;;;1.11;87.86
43711;BME280;29309;42.682;23.372;2023-01-27T15:05:21;94271.59;;;1.08;87.95
43711;BME280;29309;42.682;23.372;2023-01-27T15:10:31;94281.34;;;1.11;88.28
43711;BME280;29309;42.682;23.372;2023-01-27T15:21:24;94285.53;;;1.03;88.49
43711;BME280;29309;42.682;23.372;2023-01-27T15:24:10;94291.84;;;1.05;88.41
43711;BME280;29309;42.682;23.372;2023-01-27T15:26:41;94286.69;;;0.99;88.41